Time;durP1;ratioP1;P1;durP2;ratioP2;P2;SDS_P1;SDS_P2;PMS_P1;PMS_P2;Temp;Humidity;BMP_temperature;BMP_pressure;BME280_temperature;BME280_humidity;BME280_pressure;Samples;Min_cycle;Max_cycle;Signal;HPM_P1;HPM_P2
2023/04/05 00:00:54;;;;;;;3.67;1.67;;;1.10;99.90;;;;;;5057640;28;20630;-87
2023/04/05 00:03:20;;;;;;;2.17;1.50;;;1.10;99.90;;;;;;5039706;28;20184;-87
2023/04/05 00:05:48;;;;;;;2.77;1.70;;;1.00;99.90;;;;;;5057654;28;20166;-86
2023/04/05 00:08:25;;;;;;;2.83;1.60;;;1.00;99.90;;;;;;5057287;28;20173;-86
2023/04/05 00:10:52;;;;;;;2.60;1.40;;;0.90;99.90;;;;;;5057609;28;20158;-87
2023/04/05 00:13:19;;;;;;;6.37;2.07;;;0.90;99.90;;;;;;5057360;28;20670;-88
2023/04/05 00:15:46;;;;;;;3.30;1.40;;;0.80;99.90;;;;;;5039468;28;20232;-87
2023/04/05 00:18:20;;;;;;;3.30;1.53;;;0.80;99.90;;;;;;5057173;28;20608;-88
2023/04/05 00:20:47;;;;;;;5.27;2.07;;;0.70;99.90;;;;;;5057127;28;20162;-88
2023/04/05 00:23:15;;;;;;;5.10;1.90;;;0.70;99.90;;;;;;5039135;28;20655;-88
2023/04/05 00:25:41;;;;;;;2.87;1.70;;;0.80;99.90;;;;;;5057342;28;20173;-87
2023/04/05 00:28:07;;;;;;;4.43;1.60;;;0.80;99.90;;;;;;5039308;28;20600;-88
2023/04/05 00:30:32;;;;;;;4.93;1.73;;;0.70;99.90;;;;;;5056868;28;20257;-88
2023/04/05 00:32:58;;;;;;;4.40;1.90;;;0.80;99.90;;;;;;5057306;28;20201;-88
2023/04/05 00:35:29;;;;;;;6.00;1.80;;;0.70;99.90;;;;;;5038843;28;20240;-86
2023/04/05 00:37:56;;;;;;;3.90;1.80;;;0.70;99.90;;;;;;5056620;28;20212;-87
2023/04/05 00:40:22;;;;;;;3.13;1.70;;;0.70;99.90;;;;;;5056714;28;20540;-87
2023/04/05 00:42:48;;;;;;;3.40;1.77;;;0.70;99.90;;;;;;5056624;28;20218;-87
2023/04/05 00:45:14;;;;;;;6.77;2.13;;;0.70;99.90;;;;;;5056400;28;20170;-86
2023/04/05 00:47:41;;;;;;;3.83;1.73;;;0.60;99.90;;;;;;5056839;28;20181;-87
2023/04/05 00:50:08;;;;;;;2.40;1.70;;;0.50;99.90;;;;;;5056848;28;20477;-87
2023/04/05 00:52:36;;;;;;;3.47;1.87;;;0.40;99.90;;;;;;5038216;28;20646;-86
2023/04/05 00:55:04;;;;;;;4.10;2.03;;;0.40;99.90;;;;;;5056737;28;20170;-87
2023/04/05 00:57:31;;;;;;;4.10;1.83;;;0.40;99.90;;;;;;5056373;28;20531;-88
2023/04/05 01:00:00;;;;;;;3.90;2.17;;;0.40;99.90;;;;;;5056531;28;20174;-87
2023/04/05 01:02:35;;;;;;;4.73;1.80;;;0.50;99.90;;;;;;5038519;28;20190;-87
2023/04/05 01:05:20;;;;;;;5.60;2.13;;;0.50;99.90;;;;;;5056547;28;20240;-87
2023/04/05 01:07:51;;;;;;;3.30;2.00;;;0.50;99.90;;;;;;5056204;28;20177;-87
2023/04/05 01:10:21;;;;;;;2.30;1.60;;;0.50;99.90;;;;;;5056320;28;20219;-87
2023/04/05 01:12:47;;;;;;;3.80;2.40;;;0.50;99.90;;;;;;5038572;28;20525;-88
2023/04/05 01:15:13;;;;;;;3.83;2.30;;;0.40;99.90;;;;;;5519787;22;20233;-86
2023/04/05 01:17:40;;;;;;;3.57;2.00;;;0.40;99.90;;;;;;5056184;28;20210;-87
2023/04/05 01:20:09;;;;;;;4.37;2.20;;;0.50;99.90;;;;;;5038447;28;20193;-87
2023/04/05 01:22:59;;;;;;;5.77;2.30;;;0.40;99.90;;;;;;5055836;28;20186;-87
2023/04/05 01:25:43;;;;;;;4.57;2.30;;;0.40;99.90;;;;;;5056294;28;20241;-87
2023/04/05 01:28:31;;;;;;;5.73;2.50;;;0.30;99.90;;;;;;5056171;28;20262;-88
2023/04/05 01:31:12;;;;;;;5.27;2.50;;;0.30;99.90;;;;;;5055985;28;20162;-88
2023/04/05 01:33:56;;;;;;;2.73;1.80;;;0.20;99.90;;;;;;5056117;28;20178;-86
2023/04/05 01:36:35;;;;;;;3.50;1.93;;;0.20;99.90;;;;;;5056041;28;20209;-88
2023/04/05 01:39:03;;;;;;;4.23;2.00;;;0.30;99.90;;;;;;5055769;28;20233;-87
2023/04/05 01:41:29;;;;;;;3.57;2.10;;;0.30;99.90;;;;;;5055733;28;20170;-87
2023/04/05 01:43:55;;;;;;;4.87;2.20;;;0.30;99.90;;;;;;5055876;28;20174;-88
2023/04/05 01:46:21;;;;;;;4.03;2.20;;;0.30;99.90;;;;;;5037621;28;20519;-88
2023/04/05 01:48:46;;;;;;;2.93;2.17;;;0.40;99.90;;;;;;5055861;28;20170;-88
2023/04/05 01:51:12;;;;;;;4.40;2.50;;;0.40;99.90;;;;;;5055527;28;20569;-88
2023/04/05 01:53:38;;;;;;;5.37;2.27;;;0.40;99.90;;;;;;5055347;28;20564;-87
2023/04/05 01:56:04;;;;;;;4.40;1.93;;;0.50;99.90;;;;;;5055757;28;20231;-88
2023/04/05 01:58:29;;;;;;;4.27;2.20;;;0.50;99.90;;;;;;5037872;28;20178;-88
2023/04/05 02:00:55;;;;;;;2.97;1.77;;;0.50;99.90;;;;;;5055579;28;20176;-89
2023/04/05 02:03:23;;;;;;;4.37;2.03;;;0.60;99.90;;;;;;5055477;28;20205;-88
2023/04/05 02:05:48;;;;;;;4.57;2.07;;;0.60;99.90;;;;;;5055648;28;20174;-88
2023/04/05 02:08:14;;;;;;;6.00;2.07;;;0.60;99.90;;;;;;5054894;28;20220;-89
2023/04/05 02:10:41;;;;;;;3.53;2.00;;;0.60;99.90;;;;;;5055147;28;20162;-89
2023/04/05 02:13:07;;;;;;;3.50;2.20;;;0.60;99.90;;;;;;5037580;28;20240;-89
2023/04/05 02:15:32;;;;;;;3.17;2.07;;;0.50;99.90;;;;;;5054969;28;20672;-89
2023/04/05 02:18:00;;;;;;;4.30;2.10;;;0.60;99.90;;;;;;5054132;28;20280;-87
2023/04/05 02:20:27;;;;;;;4.07;2.10;;;0.60;99.90;;;;;;5055095;28;20154;-89
2023/04/05 02:22:53;;;;;;;5.27;2.10;;;0.60;99.90;;;;;;5055066;28;20181;-85
2023/04/05 02:25:19;;;;;;;3.27;2.07;;;0.60;99.90;;;;;;5055193;28;20180;-89
2023/04/05 02:27:45;;;;;;;5.47;2.20;;;0.60;99.90;;;;;;5055400;28;20252;-89
2023/04/05 02:30:12;;;;;;;4.23;2.20;;;0.60;99.90;;;;;;5055277;28;20159;-89
2023/04/05 02:32:41;;;;;;;3.00;1.97;;;0.60;99.90;;;;;;5037296;28;20192;-88
2023/04/05 02:35:09;;;;;;;4.80;2.10;;;0.50;99.90;;;;;;5037119;28;20177;-88
2023/04/05 02:37:35;;;;;;;2.97;1.90;;;0.50;99.90;;;;;;5054986;28;20213;-89
2023/04/05 02:40:04;;;;;;;3.00;2.03;;;0.40;99.90;;;;;;5055092;28;20162;-89
2023/04/05 02:42:29;;;;;;;3.97;2.20;;;0.40;99.90;;;;;;5054815;28;20629;-89
2023/04/05 02:44:55;;;;;;;3.07;2.20;;;0.40;99.90;;;;;;5054806;28;20258;-89
2023/04/05 02:47:21;;;;;;;3.13;1.97;;;0.40;99.90;;;;;;5037131;28;20189;-89
2023/04/05 02:49:47;;;;;;;5.77;2.33;;;0.40;99.90;;;;;;5071291;28;20184;-89
2023/04/05 02:52:14;;;;;;;3.60;2.00;;;0.30;99.90;;;;;;5074771;28;20189;-89
2023/04/05 02:54:39;;;;;;;4.60;2.20;;;0.30;99.90;;;;;;5074851;28;20173;-90
2023/04/05 02:57:09;;;;;;;3.83;2.10;;;0.30;99.90;;;;;;5057102;28;20299;-90
2023/04/05 02:59:35;;;;;;;3.27;2.00;;;0.30;99.90;;;;;;5074683;28;20179;-89
2023/04/05 03:02:01;;;;;;;3.30;2.07;;;0.20;99.90;;;;;;5074437;28;20169;-89
2023/04/05 03:04:27;;;;;;;4.60;2.40;;;0.20;99.90;;;;;;5074255;28;20175;-90
2023/04/05 03:06:53;;;;;;;5.93;1.70;;;0.10;99.90;;;;;;5056734;28;20593;-88
2023/04/05 03:09:21;;;;;;;2.47;1.90;;;0.00;99.90;;;;;;5056862;28;20169;-89
2023/04/05 03:11:47;;;;;;;4.90;2.00;;;0.10;99.90;;;;;;5074510;28;20169;-90
2023/04/05 03:14:12;;;;;;;3.73;2.40;;;0.10;99.90;;;;;;5074325;28;20179;-89
2023/04/05 03:16:38;;;;;;;2.97;2.13;;;0.10;99.90;;;;;;5074163;28;20244;-88
2023/04/05 03:19:05;;;;;;;4.80;2.30;;;0.10;99.90;;;;;;5063213;28;20186;-89
2023/04/05 03:21:32;;;;;;;5.23;2.50;;;0.00;99.90;;;;;;5053515;28;20193;-90
2023/04/05 03:23:59;;;;;;;3.20;2.10;;;-0.10;99.90;;;;;;5054310;28;20178;-90
2023/04/05 03:26:25;;;;;;;3.33;2.27;;;-0.10;99.90;;;;;;5054386;28;20181;-89
2023/04/05 03:28:50;;;;;;;4.30;2.27;;;-0.10;99.90;;;;;;5054064;28;20170;-90
2023/04/05 03:31:16;;;;;;;3.23;2.20;;;-0.10;99.90;;;;;;5054084;28;20630;-90
2023/04/05 03:33:42;;;;;;;3.93;2.13;;;-0.10;99.90;;;;;;5053827;28;20179;-90
2023/04/05 03:36:08;;;;;;;3.57;2.07;;;-0.10;99.90;;;;;;5054014;28;20619;-87
2023/04/05 03:38:34;;;;;;;5.47;2.10;;;-0.10;99.90;;;;;;5054294;28;20187;-88
2023/04/05 03:41:01;;;;;;;3.73;2.00;;;-0.10;99.90;;;;;;5036341;28;20220;-90
2023/04/05 03:43:28;;;;;;;3.20;1.80;;;-0.20;99.90;;;;;;5054049;28;20183;-90
2023/04/05 03:45:54;;;;;;;2.80;2.23;;;-0.20;99.90;;;;;;5054615;28;20206;-90
2023/04/05 03:48:21;;;;;;;4.33;2.13;;;-0.20;99.90;;;;;;5036269;28;20648;-89
2023/04/05 03:50:47;;;;;;;5.40;2.23;;;-0.20;99.90;;;;;;5053917;28;20151;-90
2023/04/05 03:53:12;;;;;;;2.97;1.63;;;-0.30;99.90;;;;;;5054040;28;20280;-89
2023/04/05 03:55:49;;;;;;;2.93;2.00;;;-0.30;99.90;;;;;;5054022;28;20229;-88
2023/04/05 03:58:15;;;;;;;3.53;2.10;;;-0.20;99.90;;;;;;5036003;28;20652;-89
2023/04/05 04:00:41;;;;;;;3.03;2.30;;;-0.30;99.90;;;;;;5053765;28;20216;-89
2023/04/05 04:03:08;;;;;;;3.20;2.10;;;-0.40;99.90;;;;;;5035772;28;20184;-89
2023/04/05 04:05:37;;;;;;;5.13;2.10;;;-0.40;99.90;;;;;;5053947;28;20170;-89
2023/04/05 04:08:05;;;;;;;3.20;2.20;;;-0.40;99.90;;;;;;5054011;28;20181;-89
2023/04/05 04:10:31;;;;;;;3.60;1.77;;;-0.30;99.90;;;;;;5053630;28;20181;-89
2023/04/05 04:12:57;;;;;;;5.33;2.53;;;-0.30;99.90;;;;;;5053788;28;20185;-89
2023/04/05 04:15:22;;;;;;;5.13;2.73;;;-0.20;99.90;;;;;;5053598;28;20753;-89
2023/04/05 04:17:48;;;;;;;6.07;2.30;;;-0.40;99.90;;;;;;5054269;28;20214;-89
2023/04/05 04:20:14;;;;;;;4.70;2.23;;;-0.40;99.90;;;;;;5073430;28;20603;-90
2023/04/05 04:22:39;;;;;;;3.57;2.40;;;-0.40;99.90;;;;;;5055958;28;20201;-90
2023/04/05 04:25:09;;;;;;;4.03;2.00;;;-0.40;99.90;;;;;;5073754;28;20242;-90
2023/04/05 04:27:40;;;;;;;5.63;2.70;;;-0.50;99.90;;;;;;5073819;28;20180;-89
2023/04/05 04:30:09;;;;;;;3.93;2.40;;;-0.50;99.90;;;;;;5055888;28;20184;-90
2023/04/05 04:32:52;;;;;;;5.13;2.27;;;-0.50;99.90;;;;;;5075459;28;20174;-89
2023/04/05 04:35:19;;;;;;;4.13;2.60;;;-0.60;99.90;;;;;;5059336;28;20332;-90
2023/04/05 04:37:53;;;;;;;5.13;2.47;;;-0.60;99.90;;;;;;5077203;28;20242;-89
2023/04/05 04:40:20;;;;;;;4.20;2.40;;;-0.70;99.90;;;;;;5077297;28;20161;-89
2023/04/05 04:42:46;;;;;;;3.93;2.20;;;-0.60;99.90;;;;;;5077082;28;20254;-89
2023/04/05 04:45:15;;;;;;;4.00;2.50;;;-0.60;99.90;;;;;;5059410;28;20200;-90
2023/04/05 04:47:42;;;;;;;3.60;2.17;;;-0.60;99.90;;;;;;5077290;28;20227;-90
2023/04/05 04:50:09;;;;;;;3.13;2.10;;;-0.60;99.90;;;;;;5057124;28;20248;-85
2023/04/05 04:52:35;;;;;;;4.67;2.53;;;-0.60;99.90;;;;;;5039054;28;20268;-89
2023/04/05 04:55:01;;;;;;;3.03;2.53;;;-0.60;99.90;;;;;;5039168;28;20253;-89
2023/04/05 04:57:27;;;;;;;3.63;2.43;;;-0.50;99.90;;;;;;5057032;28;20212;-90
2023/04/05 04:59:53;;;;;;;3.40;2.50;;;-0.50;99.90;;;;;;5057264;28;20615;-88
2023/04/05 05:02:23;;;;;;;5.00;2.20;;;-0.50;99.90;;;;;;5057277;28;20235;-89
2023/04/05 05:04:49;;;;;;;2.60;2.00;;;-0.40;99.90;;;;;;5056838;28;20303;-90
2023/04/05 05:07:16;;;;;;;6.67;2.50;;;-0.40;99.90;;;;;;5057010;28;20656;-90
2023/04/05 05:09:42;;;;;;;4.50;2.73;;;-0.30;99.90;;;;;;5056536;28;20228;-90
2023/04/05 05:12:08;;;;;;;3.63;2.60;;;-0.30;99.90;;;;;;5056863;28;20181;-89
2023/04/05 05:14:34;;;;;;;4.37;2.50;;;-0.30;99.90;;;;;;5056796;28;20182;-89
2023/04/05 05:16:59;;;;;;;4.20;2.40;;;-0.20;99.90;;;;;;5056381;28;20239;-89
2023/04/05 05:19:25;;;;;;;4.93;2.67;;;-0.10;99.90;;;;;;5038362;28;20196;-90
2023/04/05 05:21:52;;;;;;;4.63;2.67;;;0.00;99.90;;;;;;5056454;28;20167;-90
2023/04/05 05:24:19;;;;;;;4.27;2.77;;;-0.10;99.90;;;;;;5038727;28;20620;-89
2023/04/05 05:26:45;;;;;;;3.70;2.37;;;0.00;99.90;;;;;;5038736;28;20186;-90
2023/04/05 05:29:10;;;;;;;5.43;2.40;;;0.10;99.90;;;;;;5038685;28;20677;-90
2023/04/05 05:31:38;;;;;;;4.90;2.63;;;0.20;99.90;;;;;;5038825;28;20181;-91
2023/04/05 05:34:03;;;;;;;4.90;2.90;;;0.30;99.90;;;;;;5055934;28;20191;-90
2023/04/05 05:36:30;;;;;;;5.40;2.97;;;0.40;99.90;;;;;;5056212;28;20206;-91
2023/04/05 05:38:55;;;;;;;7.53;3.07;;;0.60;99.90;;;;;;5056168;28;20179;-91
2023/04/05 05:41:21;;;;;;;5.80;3.10;;;0.70;99.90;;;;;;5056653;28;20249;-91
2023/04/05 05:43:50;;;;;;;4.93;3.37;;;0.80;99.90;;;;;;5055235;28;20182;-92
2023/04/05 05:46:18;;;;;;;5.57;3.53;;;1.00;99.90;;;;;;5056184;28;20166;-92
2023/04/05 05:48:43;;;;;;;6.40;3.60;;;1.00;99.90;;;;;;5047819;28;20197;-91
2023/04/05 05:51:09;;;;;;;6.90;3.43;;;1.10;99.90;;;;;;5036012;28;20246;-91
2023/04/05 05:53:38;;;;;;;6.77;3.43;;;1.30;99.90;;;;;;5035998;28;20179;-92
2023/04/05 05:56:04;;;;;;;5.87;3.77;;;1.40;99.90;;;;;;5035941;28;20170;-90
2023/04/05 05:58:31;;;;;;;6.07;2.90;;;1.50;99.90;;;;;;5035875;28;20174;-92
2023/04/05 06:00:57;;;;;;;3.67;2.50;;;1.60;99.90;;;;;;5035648;28;20185;-89
2023/04/05 06:03:28;;;;;;;5.47;3.00;;;1.70;99.90;;;;;;5017995;28;20189;-88
2023/04/05 06:05:56;;;;;;;3.77;2.83;;;1.90;99.90;;;;;;5035736;28;20610;-89
2023/04/05 06:08:24;;;;;;;5.90;3.23;;;2.10;99.90;;;;;;5035595;28;20166;-89
2023/04/05 06:10:51;;;;;;;5.27;3.50;;;2.30;99.90;;;;;;5035691;28;20171;-89
2023/04/05 06:13:16;;;;;;;5.50;3.50;;;2.30;99.90;;;;;;5035733;28;20171;-90
2023/04/05 06:15:42;;;;;;;6.10;3.07;;;2.50;99.90;;;;;;5017871;28;20237;-88
2023/04/05 06:18:12;;;;;;;6.13;3.43;;;2.60;99.90;;;;;;5021209;28;20218;-91
2023/04/05 06:20:39;;;;;;;7.87;3.53;;;2.70;99.90;;;;;;5055703;28;20194;-89
2023/04/05 06:23:08;;;;;;;5.97;3.23;;;2.80;99.90;;;;;;5038194;28;20272;-89
2023/04/05 06:25:34;;;;;;;5.07;3.10;;;2.90;99.90;;;;;;5038271;28;20209;-89
2023/04/05 06:28:05;;;;;;;6.37;3.27;;;3.00;99.90;;;;;;5037811;28;20202;-88
2023/04/05 06:30:32;;;;;;;6.30;3.67;;;3.10;99.90;;;;;;5037737;28;20177;-88
2023/04/05 06:32:58;;;;;;;7.23;3.50;;;3.20;99.90;;;;;;5037337;28;20200;-84
2023/04/05 06:35:24;;;;;;;8.30;4.87;;;3.40;99.90;;;;;;5055050;28;20224;-86
2023/04/05 06:37:51;;;;;;;14.03;5.30;;;3.60;99.90;;;;;;5054902;28;20202;-87
2023/04/05 06:40:18;;;;;;;9.97;5.03;;;3.80;99.90;;;;;;5054851;28;20655;-86
2023/04/05 06:42:44;;;;;;;6.43;3.90;;;4.00;99.90;;;;;;5037032;28;20173;-85
2023/04/05 06:45:11;;;;;;;7.23;3.30;;;4.10;99.90;;;;;;5054083;28;20173;-85
2023/04/05 06:47:38;;;;;;;6.53;3.37;;;4.30;99.90;;;;;;5053731;28;20184;-85
2023/04/05 06:50:07;;;;;;;3.80;2.70;;;4.40;99.90;;;;;;5036278;28;20181;-85
2023/04/05 06:52:33;;;;;;;4.27;2.90;;;4.60;99.90;;;;;;5036143;28;20182;-85
2023/04/05 06:55:00;;;;;;;5.30;2.97;;;4.70;99.90;;;;;;5036136;28;20492;-85
2023/04/05 06:57:26;;;;;;;5.27;3.00;;;4.70;99.90;;;;;;5054206;28;20201;-85
2023/04/05 06:59:53;;;;;;;7.27;2.83;;;4.80;99.90;;;;;;5053996;28;20173;-86
2023/04/05 07:02:19;;;;;;;3.27;2.70;;;4.80;99.90;;;;;;5035776;28;20636;-84
2023/04/05 07:04:46;;;;;;;10.17;2.80;;;4.90;99.90;;;;;;5053960;28;20222;-84
2023/04/05 07:07:12;;;;;;;6.07;3.47;;;5.10;99.90;;;;;;5036244;28;20181;-86
2023/04/05 07:09:38;;;;;;;6.23;3.10;;;5.20;99.90;;;;;;5035982;28;20559;-85
2023/04/05 07:12:05;;;;;;;5.37;2.70;;;5.40;99.90;;;;;;5036167;28;20174;-85
2023/04/05 07:14:33;;;;;;;3.77;2.53;;;5.50;99.90;;;;;;5035415;28;20185;-86
2023/04/05 07:16:59;;;;;;;4.93;2.90;;;5.50;99.90;;;;;;5053674;28;20311;-86
2023/04/05 07:19:25;;;;;;;4.13;2.80;;;5.60;99.90;;;;;;5035757;28;20607;-87
2023/04/05 07:21:51;;;;;;;3.50;2.30;;;5.70;99.90;;;;;;5036010;28;20303;-86
2023/04/05 07:24:17;;;;;;;5.03;2.50;;;5.80;99.90;;;;;;5053342;28;20243;-86
2023/04/05 07:26:43;;;;;;;6.33;2.87;;;5.80;99.90;;;;;;5053799;28;20228;-86
2023/04/05 07:29:10;;;;;;;3.83;2.63;;;5.90;99.90;;;;;;5053566;28;20181;-86
2023/04/05 07:31:37;;;;;;;4.33;2.53;;;6.00;99.90;;;;;;5035866;28;20256;-87
2023/04/05 07:34:03;;;;;;;5.30;2.80;;;5.90;99.90;;;;;;5053446;28;20174;-86
2023/04/05 07:36:29;;;;;;;7.47;2.50;;;6.00;99.90;;;;;;5036096;28;20594;-88
2023/04/05 07:38:56;;;;;;;4.20;2.73;;;6.00;99.90;;;;;;5035743;28;20193;-87
2023/04/05 07:41:25;;;;;;;5.57;3.03;;;6.10;99.90;;;;;;5035714;28;20208;-87
2023/04/05 07:43:51;;;;;;;5.93;3.50;;;6.20;99.90;;;;;;5053762;28;20182;-87
2023/04/05 07:46:17;;;;;;;6.33;3.30;;;6.30;99.90;;;;;;5053616;28;20678;-87
2023/04/05 07:48:45;;;;;;;5.33;2.60;;;6.40;99.90;;;;;;5053263;28;20224;-86
2023/04/05 07:51:11;;;;;;;4.93;2.57;;;6.50;99.90;;;;;;5053649;28;20261;-88
2023/04/05 07:53:37;;;;;;;5.40;2.80;;;6.60;99.90;;;;;;5053450;28;20329;-87
2023/04/05 07:56:10;;;;;;;5.10;2.50;;;6.70;99.90;;;;;;5035859;28;20178;-88
2023/04/05 07:58:40;;;;;;;5.03;2.73;;;6.60;99.90;;;;;;5053493;28;20224;-88
2023/04/05 08:01:07;;;;;;;3.93;2.43;;;6.50;99.90;;;;;;5053394;28;20205;-87
2023/04/05 08:03:34;;;;;;;4.87;2.50;;;6.50;99.90;;;;;;5053663;28;20165;-86
2023/04/05 08:06:12;;;;;;;6.07;2.50;;;6.40;99.90;;;;;;5053175;28;20608;-88
2023/04/05 08:08:39;;;;;;;6.70;2.30;;;6.40;99.90;;;;;;5039227;28;20357;-88
2023/04/05 08:11:05;;;;;;;5.23;2.63;;;6.40;99.90;;;;;;5039692;28;20216;-86
2023/04/05 08:13:32;;;;;;;5.33;2.63;;;6.40;99.90;;;;;;5057620;28;20194;-88
2023/04/05 08:16:00;;;;;;;8.50;2.50;;;6.30;99.90;;;;;;5039632;28;20237;-88
2023/04/05 08:18:26;;;;;;;5.03;2.47;;;6.40;99.90;;;;;;5057266;28;20575;-88
2023/04/05 08:20:56;;;;;;;6.27;2.37;;;6.50;99.90;;;;;;5038919;28;20181;-89
2023/04/05 08:23:22;;;;;;;7.07;2.73;;;6.60;99.90;;;;;;5039360;28;20182;-87
2023/04/05 08:25:48;;;;;;;4.63;2.47;;;6.60;99.90;;;;;;5057278;28;20236;-87
2023/04/05 08:28:14;;;;;;;5.63;2.40;;;6.70;99.90;;;;;;5066477;28;20630;-87
2023/04/05 08:30:41;;;;;;;4.50;2.30;;;6.80;99.90;;;;;;5076931;28;20177;-87
2023/04/05 08:33:07;;;;;;;7.13;2.97;;;6.90;99.90;;;;;;5076867;28;20165;-89
2023/04/05 08:35:36;;;;;;;5.33;2.60;;;7.00;99.90;;;;;;5076896;28;20248;-87
2023/04/05 08:38:02;;;;;;;4.20;2.20;;;7.20;99.90;;;;;;5058708;28;20658;-87
2023/04/05 08:40:36;;;;;;;6.90;2.30;;;7.30;99.90;;;;;;5058951;28;20256;-85
2023/04/05 08:43:24;;;;;;;6.23;2.53;;;7.40;99.90;;;;;;5076905;28;20165;-86
2023/04/05 08:45:52;;;;;;;7.43;2.27;;;7.50;99.20;;;;;;5058835;28;20311;-87
2023/04/05 08:48:18;;;;;;;2.90;1.77;;;7.30;99.00;;;;;;5058793;28;20626;-88
2023/04/05 08:50:52;;;;;;;6.40;2.33;;;7.30;99.90;;;;;;5076481;28;20584;-86
2023/04/05 08:53:18;;;;;;;3.97;1.87;;;7.10;98.90;;;;;;5058783;28;20607;-87
2023/04/05 08:55:53;;;;;;;5.33;2.33;;;7.00;97.60;;;;;;5076425;28;20185;-86
2023/04/05 08:58:23;;;;;;;6.10;1.83;;;6.70;99.90;;;;;;5065435;28;20223;-86
2023/04/05 09:00:50;;;;;;;3.70;1.80;;;6.60;99.90;;;;;;5056465;28;20500;-86
2023/04/05 09:03:26;;;;;;;5.23;1.80;;;6.40;99.90;;;;;;5056474;28;20585;-87
2023/04/05 09:05:52;;;;;;;3.60;1.90;;;6.40;99.90;;;;;;5038784;28;20178;-87
2023/04/05 09:08:21;;;;;;;4.03;2.23;;;6.40;99.90;;;;;;5056405;28;20174;-86
2023/04/05 09:10:51;;;;;;;4.43;2.00;;;6.30;99.90;;;;;;5038804;28;20592;-86
2023/04/05 09:13:17;;;;;;;6.30;2.00;;;6.40;99.90;;;;;;5056048;28;20190;-87
2023/04/05 09:15:43;;;;;;;4.17;2.00;;;6.40;99.90;;;;;;5055773;28;20304;-85
2023/04/05 09:18:09;;;;;;;7.17;2.20;;;6.40;99.90;;;;;;5055156;28;20217;-86
2023/04/05 09:20:35;;;;;;;7.47;2.30;;;6.50;99.90;;;;;;5055642;28;20178;-86
2023/04/05 09:23:01;;;;;;;4.20;2.07;;;6.60;99.90;;;;;;5055775;28;20173;-86
2023/04/05 09:25:41;;;;;;;7.37;2.20;;;6.70;99.40;;;;;;5055949;28;20174;-86
2023/04/05 09:28:08;;;;;;;4.60;2.23;;;6.80;99.20;;;;;;5055604;28;20514;-86
2023/04/05 09:30:36;;;;;;;6.17;1.90;;;6.90;99.90;;;;;;5055838;28;20205;-85
2023/04/05 09:33:02;;;;;;;3.97;1.83;;;6.90;98.70;;;;;;5038176;28;20182;-86
2023/04/05 09:35:30;;;;;;;4.77;2.10;;;7.10;99.60;;;;;;5055779;28;20217;-85
2023/04/05 09:38:01;;;;;;;3.57;2.00;;;7.10;98.40;;;;;;5037547;28;20217;-85
2023/04/05 09:40:43;;;;;;;4.80;1.90;;;7.20;97.40;;;;;;5055266;28;20170;-86
2023/04/05 09:43:10;;;;;;;4.47;2.20;;;7.10;97.20;;;;;;5055236;28;20479;-86
2023/04/05 09:45:42;;;;;;;3.43;1.70;;;7.10;97.40;;;;;;5055294;28;20235;-86
2023/04/05 09:48:09;;;;;;;3.70;2.10;;;7.20;97.70;;;;;;5055570;28;20182;-86
2023/04/05 09:50:35;;;;;;;4.80;2.10;;;7.20;98.00;;;;;;5055223;28;20178;-87
2023/04/05 09:53:17;;;;;;;2.93;1.90;;;7.30;95.20;;;;;;5021199;28;20612;-86
2023/04/05 09:55:43;;;;;;;2.23;1.53;;;7.20;95.90;;;;;;5055590;28;20258;-85
2023/04/05 09:58:17;;;;;;;3.63;1.57;;;7.20;96.60;;;;;;5055082;28;20672;-84
2023/04/05 10:00:53;;;;;;;3.30;1.67;;;7.20;96.60;;;;;;5037290;28;20632;-84
2023/04/05 10:03:20;;;;;;;4.07;1.90;;;7.10;95.60;;;;;;5037195;28;20255;-85
2023/04/05 10:05:47;;;;;;;3.50;1.73;;;7.10;95.60;;;;;;5055209;28;20172;-85
2023/04/05 10:08:14;;;;;;;3.50;1.90;;;7.10;94.70;;;;;;5055355;28;20609;-85
2023/04/05 10:10:46;;;;;;;2.03;1.40;;;7.20;96.40;;;;;;5036715;28;20690;-85
2023/04/05 10:13:13;;;;;;;4.60;1.70;;;7.30;97.60;;;;;;5036903;28;20423;-85
2023/04/05 10:15:44;;;;;;;3.60;1.63;;;7.50;95.70;;;;;;5036872;28;20221;-85
2023/04/05 10:18:22;;;;;;;4.63;1.93;;;7.60;95.60;;;;;;5036934;28;20547;-85
2023/04/05 10:20:50;;;;;;;5.07;2.33;;;7.60;95.30;;;;;;5054559;28;20257;-85
2023/04/05 10:23:26;;;;;;;3.73;2.00;;;7.50;97.30;;;;;;5054853;28;20204;-85
2023/04/05 10:25:52;;;;;;;5.07;2.00;;;7.50;94.70;;;;;;5054811;28;20620;-85
2023/04/05 10:28:26;;;;;;;3.57;1.80;;;7.80;96.70;;;;;;5055027;28;20276;-86
2023/04/05 10:31:08;;;;;;;3.53;1.83;;;8.20;92.90;;;;;;5054231;28;20162;-86
2023/04/05 10:33:39;;;;;;;4.00;2.20;;;8.10;91.10;;;;;;5036842;28;20174;-86
2023/04/05 10:36:38;;;;;;;5.67;2.20;;;8.00;91.70;;;;;;5036121;28;20615;-85
2023/04/05 10:39:07;;;;;;;2.53;1.60;;;8.20;94.80;;;;;;5054684;28;20201;-85
2023/04/05 10:41:36;;;;;;;2.60;1.73;;;8.40;90.00;;;;;;5036516;28;20182;-84
2023/04/05 10:44:03;;;;;;;3.13;1.97;;;8.60;92.20;;;;;;5054197;28;20173;-85
2023/04/05 10:46:30;;;;;;;3.63;1.57;;;8.90;92.20;;;;;;5036408;28;20625;-86
2023/04/05 10:49:26;;;;;;;3.60;1.90;;;9.20;92.20;;;;;;5036459;28;20272;-85
2023/04/05 10:51:53;;;;;;;2.03;1.50;;;9.30;93.30;;;;;;5036006;28;20197;-87
2023/04/05 10:54:19;;;;;;;2.23;1.63;;;9.50;91.70;;;;;;5054317;28;20178;-85
2023/04/05 10:56:45;;;;;;;2.67;1.80;;;9.60;91.30;;;;;;5053784;28;20223;-85
2023/04/05 10:59:12;;;;;;;3.55;2.08;;;9.60;90.70;;;;;;5053846;28;20197;-86
2023/04/05 11:01:40;;;;;;;4.57;1.52;;;9.60;87.40;;;;;;5053663;28;20208;-85
2023/04/05 11:04:14;;;;;;;2.83;1.80;;;9.60;88.70;;;;;;5054090;28;20503;-85
2023/04/05 11:06:40;;;;;;;4.25;2.20;;;9.70;92.80;;;;;;5036202;28;20619;-85
2023/04/05 11:09:17;;;;;;;3.60;1.90;;;9.80;90.50;;;;;;5035995;28;20178;-86
2023/04/05 11:11:46;;;;;;;3.27;1.70;;;9.80;88.60;;;;;;5053761;28;20507;-84
2023/04/05 11:14:22;;;;;;;4.28;2.17;;;9.80;83.90;;;;;;5053524;28;20213;-85
2023/04/05 11:16:55;;;;;;;5.18;1.83;;;9.70;88.10;;;;;;5053686;28;20303;-85
2023/04/05 11:19:47;;;;;;;5.13;2.20;;;9.90;88.10;;;;;;5053927;28;20177;-86
2023/04/05 11:22:24;;;;;;;4.47;1.83;;;10.20;90.10;;;;;;5049581;28;20201;-85
2023/04/05 11:24:52;;;;;;;3.58;1.63;;;10.10;90.50;;;;;;5053711;28;20162;-84
2023/04/05 11:27:47;;;;;;;4.45;1.75;;;10.00;85.60;;;;;;5035107;28;20805;-85
2023/04/05 11:30:13;;;;;;;2.42;1.60;;;10.00;84.90;;;;;;5051523;28;20181;-85
2023/04/05 11:32:43;;;;;;;2.42;1.80;;;10.20;91.00;;;;;;5053455;28;20172;-85
2023/04/05 11:35:21;;;;;;;3.67;1.70;;;10.30;90.10;;;;;;5053918;28;20200;-85
2023/04/05 11:37:59;;;;;;;3.88;1.75;;;10.40;83.00;;;;;;5053670;28;20186;-86
2023/04/05 11:40:36;;;;;;;2.63;1.63;;;10.60;89.60;;;;;;5053359;28;20174;-85
2023/04/05 11:43:10;;;;;;;4.28;1.80;;;10.70;88.70;;;;;;5052713;28;20489;-85
2023/04/05 11:45:40;;;;;;;4.88;1.70;;;10.70;79.00;;;;;;5053532;28;20170;-86
2023/04/05 11:48:09;;;;;;;3.42;1.80;;;10.70;85.30;;;;;;5053576;28;20202;-85
2023/04/05 11:50:40;;;;;;;4.80;2.03;;;10.90;88.40;;;;;;5053337;28;20169;-85
2023/04/05 11:53:16;;;;;;;2.35;1.80;;;10.90;82.10;;;;;;5053403;28;20235;-86
2023/04/05 11:55:47;;;;;;;3.15;1.75;;;10.90;86.10;;;;;;5035987;28;20166;-85
2023/04/05 11:58:20;;;;;;;2.88;1.90;;;10.60;79.60;;;;;;5053169;28;20178;-85
2023/04/05 12:00:56;;;;;;;3.00;2.03;;;10.40;87.30;;;;;;5053025;28;20162;-84
2023/04/05 12:03:21;;;;;;;3.33;1.95;;;10.50;84.70;;;;;;5053371;28;20600;-85
2023/04/05 12:05:52;;;;;;;3.17;1.83;;;10.60;75.80;;;;;;5053340;28;20232;-85
2023/04/05 12:08:19;;;;;;;3.63;1.52;;;10.60;80.80;;;;;;5035335;28;20263;-85
2023/04/05 12:10:53;;;;;;;3.22;1.83;;;10.70;83.30;;;;;;5053066;28;20485;-84
2023/04/05 12:13:34;;;;;;;4.57;1.80;;;10.90;79.50;;;;;;5035135;28;20174;-84
2023/04/05 12:16:08;;;;;;;3.63;1.88;;;10.60;81.00;;;;;;5021029;28;20226;-84
2023/04/05 12:18:35;;;;;;;5.80;1.75;;;10.90;85.10;;;;;;5012306;28;20187;-84
2023/04/05 12:21:04;;;;;;;3.83;1.83;;;11.10;84.00;;;;;;5013352;28;20638;-85
2023/04/05 12:23:31;;;;;;;2.55;1.85;;;11.30;82.80;;;;;;5013554;28;20197;-84
2023/04/05 12:25:57;;;;;;;3.30;1.77;;;11.40;79.80;;;;;;5013565;28;20179;-84
2023/04/05 12:28:23;;;;;;;2.72;1.70;;;11.50;82.80;;;;;;5023691;28;20599;-87
2023/04/05 12:30:56;;;;;;;2.17;1.35;;;11.40;82.40;;;;;;5031877;28;20261;-85
2023/04/05 12:33:29;;;;;;;1.80;1.50;;;11.30;80.50;;;;;;5033111;28;20171;-84
2023/04/05 12:35:56;;;;;;;2.65;1.58;;;11.20;80.10;;;;;;5033286;28;20197;-85
2023/04/05 12:38:28;;;;;;;2.17;1.58;;;11.30;78.60;;;;;;5033277;28;20580;-86
2023/04/05 12:40:58;;;;;;;4.28;2.03;;;11.40;82.00;;;;;;5033002;28;20245;-85
2023/04/05 12:43:24;;;;;;;5.25;2.10;;;11.10;73.70;;;;;;5032750;28;20175;-84
2023/04/05 12:45:54;;;;;;;3.58;1.98;;;11.30;78.90;;;;;;5033126;28;20202;-84
2023/04/05 12:48:22;;;;;;;3.63;1.88;;;11.40;79.20;;;;;;5033223;28;20214;-90
2023/04/05 12:50:53;;;;;;;2.25;1.60;;;11.50;83.00;;;;;;5031783;28;20248;-84
2023/04/05 12:53:27;;;;;;;4.50;1.83;;;11.60;78.60;;;;;;5032941;28;20286;-84
2023/04/05 12:56:00;;;;;;;2.80;1.70;;;11.30;75.80;;;;;;5035341;28;20540;-84
2023/04/05 12:58:36;;;;;;;3.08;1.50;;;11.10;76.20;;;;;;5025238;28;20544;-88
2023/04/05 13:01:05;;;;;;;3.08;2.05;;;11.00;83.30;;;;;;5016774;28;20183;-84